Driscoll, Texas
Current Conditions -  °F | °C
As of 8:15 AM on Thursday 27 Nov 2014 (Local Time) from KRBO Reporting Station
Clear Clear  
Wind Chill: 57°   Ceiling: Unl
Heat Index: 57°   Visibility: 10mi
Dew Point: 51°   Wind: 7mph
Humidity: 79%   Direction: 70°ENE
Pressure: 30.43"   Gusts: NA
Location:  27.67°N, 97.75°W
Report Text: KRBO 271415Z AUTO 07006KT 10SM CLR 14/11 A3043 RMK AO2 T01400105
Loading
Personal Weather Stations






























Interactive Weather Map New forecast layout! Learn more

10-Day Weather Forecast

Advertisements
Track Severe Weather on mobile